createdAt,value
2023-03-06T00:00:40.803Z,3.15
2023-03-06T00:01:49.120Z,2.97
2023-03-06T00:02:52.545Z,3.65
2023-03-06T00:03:55.653Z,2.97
2023-03-06T00:04:58.493Z,3.17
2023-03-06T00:06:01.754Z,3.58
2023-03-06T00:07:04.791Z,3.20
2023-03-06T00:08:07.684Z,3.40
2023-03-06T00:09:11.075Z,2.88
2023-03-06T00:10:16.678Z,3.10
2023-03-06T00:11:19.702Z,2.92
2023-03-06T00:12:22.628Z,3.20
2023-03-06T00:13:27.145Z,3.45
2023-03-06T00:14:30.373Z,4.90
2023-03-06T00:15:33.435Z,3.55
2023-03-06T00:16:36.614Z,3.63
2023-03-06T00:17:40.079Z,3.47
2023-03-06T00:18:44.408Z,3.35
2023-03-06T00:19:47.647Z,3.95
2023-03-06T00:20:50.847Z,3.63
2023-03-06T00:21:55.080Z,3.60
2023-03-06T00:22:58.392Z,3.47
2023-03-06T00:24:01.636Z,3.45
2023-03-06T00:25:05.701Z,3.65
2023-03-06T00:26:09.590Z,3.97
2023-03-06T00:27:14.160Z,3.60
2023-03-06T00:28:18.056Z,3.85
2023-03-06T00:29:21.175Z,3.50
2023-03-06T00:30:25.702Z,3.00
2023-03-06T00:31:28.778Z,3.78
2023-03-06T00:32:33.873Z,3.60
2023-03-06T00:33:38.180Z,3.33
2023-03-06T00:34:41.215Z,3.75
2023-03-06T00:35:44.542Z,3.95
2023-03-06T00:36:48.317Z,3.38
2023-03-06T00:37:51.562Z,3.38
2023-03-06T00:38:54.888Z,3.25
2023-03-06T00:39:58.090Z,3.35
2023-03-06T00:41:07.928Z,3.10
2023-03-06T00:42:11.356Z,3.72
2023-03-06T00:43:14.860Z,3.22
2023-03-06T00:44:18.325Z,3.38
2023-03-06T00:45:22.696Z,3.55
2023-03-06T00:46:25.936Z,2.92
2023-03-06T00:47:29.315Z,3.17
2023-03-06T00:48:33.908Z,3.17
2023-03-06T00:49:37.336Z,3.78
2023-03-06T00:50:40.604Z,3.42
2023-03-06T00:51:44.014Z,3.40
2023-03-06T00:52:47.428Z,3.55
2023-03-06T00:53:50.745Z,2.80
2023-03-06T00:54:54.289Z,3.65
2023-03-06T00:55:57.667Z,3.45
2023-03-06T00:57:00.678Z,3.15
2023-03-06T00:58:03.858Z,3.28
2023-03-06T00:59:06.999Z,3.72
2023-03-06T01:00:12.634Z,2.92
2023-03-06T01:01:15.720Z,3.25
2023-03-06T01:02:19.744Z,3.28
2023-03-06T01:03:22.798Z,2.85
2023-03-06T01:04:28.883Z,4.10
2023-03-06T01:05:35.505Z,2.67
2023-03-06T01:06:38.728Z,2.65
2023-03-06T01:07:44.135Z,3.15
2023-03-06T01:08:47.176Z,3.20
2023-03-06T01:09:50.342Z,3.33
2023-03-06T01:10:53.447Z,3.38
2023-03-06T01:11:57.122Z,2.97
2023-03-06T01:13:00.209Z,2.72
2023-03-06T01:14:03.340Z,3.20
2023-03-06T01:15:07.439Z,2.97
2023-03-06T01:16:14.078Z,2.70
2023-03-06T01:17:17.357Z,3.25
2023-03-06T01:18:20.374Z,3.33
2023-03-06T01:19:23.721Z,2.92
2023-03-06T01:20:27.188Z,3.00
2023-03-06T01:21:30.294Z,3.13
2023-03-06T01:22:34.165Z,3.00
2023-03-06T01:23:37.550Z,2.90
2023-03-06T01:24:40.815Z,2.67
2023-03-06T01:25:43.804Z,3.00
2023-03-06T01:26:47.143Z,2.80
2023-03-06T01:27:50.576Z,3.17
2023-03-06T01:28:53.678Z,2.70
2023-03-06T01:29:57.889Z,2.72
2023-03-06T01:31:02.558Z,2.60
2023-03-06T01:32:06.177Z,2.78
2023-03-06T01:33:09.360Z,2.55
2023-03-06T01:34:13.254Z,2.83
2023-03-06T01:35:16.482Z,3.08
2023-03-06T01:36:19.717Z,2.40
2023-03-06T01:37:22.824Z,2.95
2023-03-06T01:38:26.750Z,2.58
2023-03-06T01:39:31.925Z,2.38
2023-03-06T01:40:36.770Z,2.42
2023-03-06T01:41:41.114Z,2.42
2023-03-06T01:42:45.817Z,2.45
2023-03-06T01:43:50.286Z,2.50
2023-03-06T01:45:14.343Z,2.53
2023-03-06T01:46:29.333Z,2.22
2023-03-06T01:47:33.319Z,1.98
2023-03-06T01:48:36.402Z,2.92
2023-03-06T01:49:42.078Z,2.53
2023-03-06T01:50:45.455Z,2.60
2023-03-06T01:51:53.048Z,2.83
2023-03-06T01:52:59.868Z,2.40
2023-03-06T01:54:09.402Z,2.67
2023-03-06T01:55:17.307Z,2.50
2023-03-06T01:56:21.156Z,2.20
2023-03-06T01:57:32.830Z,2.38
2023-03-06T01:58:36.189Z,2.10
2023-03-06T01:59:42.684Z,2.28
2023-03-06T02:00:46.339Z,2.10
2023-03-06T02:01:50.823Z,2.50
2023-03-06T02:03:00.909Z,2.42
2023-03-06T02:04:06.190Z,1.95
2023-03-06T02:05:09.585Z,2.03
2023-03-06T02:06:12.649Z,2.33
2023-03-06T02:07:19.219Z,1.92
2023-03-06T02:08:26.890Z,2.05
2023-03-06T02:09:33.050Z,2.03
2023-03-06T02:10:36.147Z,1.80
2023-03-06T02:11:44.286Z,4.20
2023-03-06T02:12:49.977Z,2.13
2023-03-06T02:13:56.138Z,2.45
2023-03-06T02:14:59.354Z,1.88
2023-03-06T02:16:04.229Z,2.33
2023-03-06T02:17:10.226Z,1.73
2023-03-06T02:18:15.020Z,1.90
2023-03-06T02:19:34.966Z,2.13
2023-03-06T02:20:44.104Z,2.03
2023-03-06T02:21:47.252Z,1.90
2023-03-06T02:22:53.318Z,1.35
2023-03-06T02:24:25.346Z,1.85
2023-03-06T02:25:47.756Z,2.10
2023-03-06T02:26:51.896Z,1.63
2023-03-06T02:27:55.421Z,1.80
2023-03-06T02:28:59.626Z,2.88
2023-03-06T02:30:08.077Z,1.95
2023-03-06T02:31:22.967Z,1.70
2023-03-06T02:32:26.104Z,1.52
2023-03-06T02:33:30.227Z,1.83
2023-03-06T02:34:40.586Z,1.60
2023-03-06T02:36:04.299Z,1.50
2023-03-06T02:37:10.504Z,1.60
2023-03-06T02:38:16.945Z,1.33
2023-03-06T02:39:26.586Z,1.60
2023-03-06T02:40:29.803Z,1.52
2023-03-06T02:41:32.877Z,1.58
2023-03-06T02:42:36.030Z,1.48
2023-03-06T02:43:41.112Z,1.73
2023-03-06T02:44:44.669Z,1.95
2023-03-06T02:45:50.713Z,1.40
2023-03-06T02:46:53.808Z,1.80
2023-03-06T02:47:57.029Z,1.50
2023-03-06T02:49:00.370Z,1.10
2023-03-06T02:50:03.440Z,1.23
2023-03-06T02:51:07.436Z,1.60
2023-03-06T02:52:13.845Z,1.90
2023-03-06T02:53:18.963Z,1.58
2023-03-06T02:54:22.003Z,1.55
2023-03-06T02:55:26.209Z,1.60
2023-03-06T02:56:31.274Z,1.45
2023-03-06T02:57:34.621Z,1.55
2023-03-06T02:58:38.047Z,1.42
2023-03-06T02:59:41.097Z,1.20
2023-03-06T03:00:44.132Z,1.20
2023-03-06T03:01:48.187Z,2.85
2023-03-06T03:02:51.932Z,1.73
2023-03-06T03:03:56.035Z,1.40
2023-03-06T03:04:59.134Z,1.17
2023-03-06T03:06:05.408Z,1.30
2023-03-06T03:07:09.951Z,1.98
2023-03-06T03:08:14.519Z,1.63
2023-03-06T03:09:18.022Z,1.45
2023-03-06T03:10:21.304Z,1.23
2023-03-06T03:11:24.786Z,1.60
2023-03-06T03:12:29.081Z,1.60
2023-03-06T03:13:32.887Z,1.27
2023-03-06T03:14:36.983Z,1.23
2023-03-06T03:15:41.605Z,1.55
2023-03-06T03:16:47.906Z,1.48
2023-03-06T03:17:51.037Z,1.38
2023-03-06T03:18:54.393Z,1.33
2023-03-06T03:19:59.007Z,2.22
2023-03-06T03:21:02.714Z,1.40
2023-03-06T03:22:06.041Z,1.38
2023-03-06T03:23:09.302Z,1.27
2023-03-06T03:24:12.296Z,1.27
2023-03-06T03:25:18.315Z,1.27
2023-03-06T03:26:22.663Z,1.38
2023-03-06T03:27:35.241Z,1.23
2023-03-06T03:28:38.514Z,1.20
2023-03-06T03:29:42.973Z,1.42
2023-03-06T03:30:46.841Z,1.33
2023-03-06T03:31:50.424Z,1.40
2023-03-06T03:32:53.535Z,1.30
2023-03-06T03:33:56.865Z,1.35
2023-03-06T03:35:00.434Z,1.50
2023-03-06T03:36:07.675Z,1.33
2023-03-06T03:37:14.717Z,1.20
2023-03-06T03:38:18.973Z,1.30
2023-03-06T03:39:22.113Z,1.80
2023-03-06T03:40:25.572Z,1.30
2023-03-06T03:41:28.658Z,1.30
2023-03-06T03:42:32.027Z,1.45
2023-03-06T03:43:35.143Z,1.23
2023-03-06T03:44:38.266Z,1.35
2023-03-06T03:45:41.325Z,1.25
2023-03-06T03:46:44.878Z,1.50
2023-03-06T03:47:52.683Z,1.70
2023-03-06T03:48:56.615Z,1.50
2023-03-06T03:49:59.728Z,1.48
2023-03-06T03:51:12.676Z,1.50
2023-03-06T03:52:19.622Z,1.40
2023-03-06T03:53:22.718Z,1.60
2023-03-06T03:54:25.898Z,1.60
2023-03-06T03:55:31.295Z,1.60
2023-03-06T03:56:35.166Z,1.58
2023-03-06T03:57:44.074Z,1.58
2023-03-06T03:58:48.078Z,1.48
2023-03-06T03:59:51.425Z,1.70
2023-03-06T04:01:01.901Z,1.42
2023-03-06T04:02:05.612Z,1.77
2023-03-06T04:03:14.343Z,2.10
2023-03-06T04:04:20.532Z,2.20
2023-03-06T04:05:23.824Z,1.63
2023-03-06T04:06:27.861Z,1.67
2023-03-06T04:07:31.104Z,1.80
2023-03-06T04:08:34.557Z,2.13
2023-03-06T04:09:37.670Z,1.65
2023-03-06T04:10:41.234Z,2.08
2023-03-06T04:11:45.706Z,3.50
2023-03-06T04:12:50.896Z,2.03
2023-03-06T04:13:54.085Z,2.08
2023-03-06T04:14:57.268Z,3.33
2023-03-06T04:16:00.545Z,2.17
2023-03-06T04:17:06.556Z,2.45
2023-03-06T04:18:09.941Z,3.78
2023-03-06T04:19:14.800Z,2.33
2023-03-06T04:20:20.661Z,2.53
2023-03-06T04:21:24.438Z,4.13
2023-03-06T04:22:28.640Z,2.38
2023-03-06T04:23:31.999Z,2.80
2023-03-06T04:24:35.518Z,2.97
2023-03-06T04:25:39.419Z,2.88
2023-03-06T04:26:45.103Z,4.38
2023-03-06T04:27:49.700Z,2.85
2023-03-06T04:28:55.500Z,3.03
2023-03-06T04:29:58.762Z,2.58
2023-03-06T04:31:03.193Z,3.97
2023-03-06T04:32:08.158Z,3.13
2023-03-06T04:33:11.620Z,2.90
2023-03-06T04:34:14.959Z,3.08
2023-03-06T04:35:18.871Z,2.78
2023-03-06T04:36:33.556Z,3.05
2023-03-06T04:37:41.535Z,4.60
2023-03-06T04:38:44.996Z,2.63
2023-03-06T04:39:48.484Z,3.28
2023-03-06T04:40:51.606Z,3.55
2023-03-06T04:41:54.786Z,2.95
2023-03-06T04:42:59.656Z,5.05
2023-03-06T04:44:02.841Z,3.60
2023-03-06T04:45:07.995Z,3.65
2023-03-06T04:46:12.017Z,3.75
2023-03-06T04:47:15.855Z,3.55
2023-03-06T04:48:20.137Z,3.53
2023-03-06T04:49:23.437Z,5.03
2023-03-06T04:50:34.105Z,3.65
2023-03-06T04:51:37.192Z,4.88
2023-03-06T04:52:40.974Z,5.10
2023-03-06T04:53:44.170Z,5.30
2023-03-06T04:54:47.281Z,3.10
2023-03-06T04:55:50.423Z,4.30
2023-03-06T04:56:53.607Z,3.55
2023-03-06T04:57:57.455Z,5.30
2023-03-06T04:59:00.684Z,3.47
2023-03-06T05:00:06.458Z,5.63
2023-03-06T05:01:11.081Z,5.40
2023-03-06T05:02:14.410Z,5.28
2023-03-06T05:03:17.487Z,4.97
2023-03-06T05:04:20.741Z,5.38
2023-03-06T05:05:24.040Z,4.10
2023-03-06T05:06:27.133Z,3.85
2023-03-06T05:07:30.370Z,3.85
2023-03-06T05:08:33.498Z,4.20
2023-03-06T05:09:38.328Z,5.80
2023-03-06T05:10:48.030Z,3.95
2023-03-06T05:11:51.099Z,4.32
2023-03-06T05:12:54.288Z,3.75
2023-03-06T05:13:57.284Z,4.10
2023-03-06T05:15:00.125Z,3.60
2023-03-06T05:16:04.865Z,4.03
2023-03-06T05:17:09.846Z,5.10
2023-03-06T05:18:14.815Z,4.22
2023-03-06T05:19:17.763Z,3.90
2023-03-06T05:20:20.811Z,4.05
2023-03-06T05:21:24.138Z,3.85
2023-03-06T05:22:27.038Z,4.22
2023-03-06T05:23:31.702Z,5.05
2023-03-06T05:24:34.630Z,5.35
2023-03-06T05:25:40.782Z,5.70
2023-03-06T05:26:43.670Z,6.63
2023-03-06T05:27:46.721Z,6.60
2023-03-06T05:28:49.733Z,4.72
2023-03-06T05:29:52.883Z,6.07
2023-03-06T05:30:55.769Z,6.03
2023-03-06T05:31:59.263Z,4.45
2023-03-06T05:33:02.405Z,7.07
2023-03-06T05:34:05.691Z,7.05
2023-03-06T05:35:09.082Z,4.78
2023-03-06T05:36:12.773Z,5.03
2023-03-06T05:37:15.616Z,5.28
2023-03-06T05:38:21.078Z,5.35
2023-03-06T05:39:23.910Z,6.78
2023-03-06T05:40:27.057Z,6.70
2023-03-06T05:41:29.986Z,6.47
2023-03-06T05:42:32.807Z,6.28
2023-03-06T05:43:35.826Z,5.55
2023-03-06T05:44:38.770Z,5.40
2023-03-06T05:45:41.992Z,5.68
2023-03-06T05:46:45.014Z,4.95
2023-03-06T05:47:47.997Z,5.80
2023-03-06T05:48:53.338Z,6.22
2023-03-06T05:49:56.362Z,6.97
2023-03-06T05:51:01.371Z,5.53
2023-03-06T05:52:07.650Z,6.60
2023-03-06T05:53:10.652Z,7.25
2023-03-06T05:54:13.571Z,5.63
2023-03-06T05:55:16.916Z,5.60
2023-03-06T05:56:19.876Z,6.07
2023-03-06T05:57:24.415Z,5.15
2023-03-06T05:58:28.272Z,7.80
2023-03-06T05:59:33.315Z,5.90
2023-03-06T06:00:36.341Z,5.82
2023-03-06T06:01:39.397Z,5.88
2023-03-06T06:02:43.777Z,5.20
2023-03-06T06:03:47.200Z,7.80
2023-03-06T06:04:50.345Z,5.90
2023-03-06T06:05:53.332Z,5.50
2023-03-06T06:07:01.068Z,5.25
2023-03-06T06:08:06.239Z,5.60
2023-03-06T06:09:13.897Z,6.13
2023-03-06T06:10:18.094Z,8.15
2023-03-06T06:11:21.408Z,5.85
2023-03-06T06:12:24.749Z,5.95
2023-03-06T06:13:29.870Z,6.22
2023-03-06T06:14:35.940Z,7.53
2023-03-06T06:15:39.461Z,6.57
2023-03-06T06:16:42.915Z,7.70
2023-03-06T06:17:46.286Z,7.60
2023-03-06T06:18:49.569Z,6.50
2023-03-06T06:19:52.912Z,6.15
2023-03-06T06:20:56.418Z,6.40
2023-03-06T06:22:02.893Z,6.78
2023-03-06T06:24:10.864Z,5.95
2023-03-06T06:25:15.517Z,6.07
2023-03-06T06:26:18.914Z,6.63
2023-03-06T06:27:27.747Z,6.32
2023-03-06T06:28:31.812Z,6.90
2023-03-06T06:29:38.806Z,6.38
2023-03-06T06:30:42.577Z,5.70
2023-03-06T06:31:52.804Z,6.45
2023-03-06T06:32:56.765Z,6.03
2023-03-06T06:34:03.983Z,9.05
2023-03-06T06:35:08.721Z,8.13
2023-03-06T06:36:17.661Z,6.22
2023-03-06T06:37:21.239Z,7.78
2023-03-06T06:38:24.565Z,6.18
2023-03-06T06:39:27.786Z,9.35
2023-03-06T06:40:31.422Z,6.80
2023-03-06T06:41:54.868Z,6.30
2023-03-06T06:42:58.818Z,7.53
2023-03-06T06:44:05.873Z,7.00
2023-03-06T06:45:12.018Z,6.40
2023-03-06T06:46:56.226Z,6.50
2023-03-06T06:47:45.447Z,7.97
2023-03-06T06:48:55.021Z,7.60
2023-03-06T06:49:58.358Z,6.00
2023-03-06T06:51:01.799Z,8.40
2023-03-06T06:52:06.050Z,7.80
2023-03-06T06:53:09.146Z,8.93
2023-03-06T06:54:12.711Z,7.15
2023-03-06T06:55:16.590Z,6.50
2023-03-06T06:56:19.756Z,6.22
2023-03-06T06:57:22.945Z,6.68
2023-03-06T06:58:26.968Z,6.80
2023-03-06T06:59:30.034Z,8.70
2023-03-06T07:00:33.184Z,6.65
2023-03-06T07:01:36.692Z,6.95
2023-03-06T07:02:39.888Z,5.88
2023-03-06T07:03:43.052Z,6.50
2023-03-06T07:05:00.643Z,6.60
2023-03-06T07:06:07.108Z,6.28
2023-03-06T07:07:10.386Z,6.18
2023-03-06T07:08:13.425Z,6.60
2023-03-06T07:09:16.668Z,6.72
2023-03-06T07:10:21.032Z,6.07
2023-03-06T07:11:24.535Z,6.30
2023-03-06T07:12:28.125Z,6.50
2023-03-06T07:13:31.412Z,5.97
2023-03-06T07:14:34.552Z,6.45
2023-03-06T07:15:37.683Z,6.45
2023-03-06T07:16:40.803Z,6.07
2023-03-06T07:17:43.746Z,5.88
2023-03-06T07:18:46.705Z,7.20
2023-03-06T07:19:49.722Z,6.78
2023-03-06T07:20:54.376Z,6.32
2023-03-06T07:21:57.323Z,6.07
2023-03-06T07:23:00.169Z,6.25
2023-03-06T07:24:03.070Z,6.40
2023-03-06T07:25:06.955Z,6.95
2023-03-06T07:26:10.716Z,5.90
2023-03-06T07:27:13.574Z,6.13
2023-03-06T07:28:19.699Z,6.22
2023-03-06T07:29:22.527Z,6.68
2023-03-06T07:30:28.629Z,6.85
2023-03-06T07:31:31.417Z,6.13
2023-03-06T07:32:52.258Z,6.03
2023-03-06T07:33:55.545Z,5.35
2023-03-06T07:35:17.577Z,5.95
2023-03-06T07:36:23.653Z,5.60
2023-03-06T07:37:28.834Z,5.95
2023-03-06T07:38:31.739Z,6.38
2023-03-06T07:39:34.492Z,6.47
2023-03-06T07:40:39.133Z,6.15
2023-03-06T07:41:42.057Z,6.35
2023-03-06T07:42:44.866Z,6.20
2023-03-06T07:43:51.562Z,6.18
2023-03-06T07:44:54.354Z,6.32
2023-03-06T07:45:59.178Z,5.93
2023-03-06T07:47:02.115Z,5.97
2023-03-06T07:48:06.237Z,5.90
2023-03-06T07:49:09.284Z,5.95
2023-03-06T07:50:12.719Z,6.68
2023-03-06T07:51:18.325Z,6.57
2023-03-06T07:52:21.315Z,5.82
2023-03-06T07:53:25.073Z,6.50
2023-03-06T07:54:31.027Z,5.93
2023-03-06T07:55:33.895Z,5.82
2023-03-06T07:56:37.336Z,5.78
2023-03-06T07:57:40.707Z,5.85
2023-03-06T07:58:45.586Z,5.68
2023-03-06T07:59:48.453Z,6.90
2023-03-06T08:00:51.564Z,5.65
2023-03-06T08:01:55.730Z,5.63
2023-03-06T08:02:58.626Z,5.57
2023-03-06T08:04:02.283Z,6.40
2023-03-06T08:05:06.543Z,6.00
2023-03-06T08:06:12.482Z,5.85
2023-03-06T08:07:15.510Z,5.47
2023-03-06T08:08:18.445Z,6.68
2023-03-06T08:09:21.334Z,6.03
2023-03-06T08:10:24.196Z,5.75
2023-03-06T08:11:31.284Z,5.60
2023-03-06T08:12:34.421Z,6.35
2023-03-06T08:13:38.535Z,5.60
2023-03-06T08:14:41.673Z,5.38
2023-03-06T08:15:48.862Z,6.82
2023-03-06T08:16:52.315Z,5.90
2023-03-06T08:17:55.325Z,6.18
2023-03-06T08:18:58.607Z,5.55
2023-03-06T08:20:01.590Z,6.03
2023-03-06T08:21:10.871Z,5.40
2023-03-06T08:22:14.418Z,5.85
2023-03-06T08:23:17.892Z,5.80
2023-03-06T08:24:20.988Z,5.47
2023-03-06T08:25:24.965Z,6.13
2023-03-06T08:26:33.108Z,5.97
2023-03-06T08:27:36.651Z,5.07
2023-03-06T08:28:40.203Z,5.72
2023-03-06T08:29:43.200Z,5.70
2023-03-06T08:30:47.846Z,7.38
2023-03-06T08:31:50.810Z,5.15
2023-03-06T08:32:53.724Z,5.80
2023-03-06T08:33:58.433Z,5.63
2023-03-06T08:35:04.213Z,6.35
2023-03-06T08:36:07.450Z,6.05
2023-03-06T08:37:10.331Z,6.13
2023-03-06T08:38:13.206Z,5.55
2023-03-06T08:39:16.197Z,5.35
2023-03-06T08:40:19.161Z,5.65
2023-03-06T08:41:22.551Z,5.72
2023-03-06T08:42:25.464Z,5.75
2023-03-06T08:43:28.558Z,5.63
2023-03-06T08:44:31.336Z,6.15
2023-03-06T08:45:34.113Z,5.72
2023-03-06T08:46:37.762Z,5.85
2023-03-06T08:47:40.604Z,5.45
2023-03-06T08:48:43.394Z,5.07
2023-03-06T08:49:46.230Z,6.00
2023-03-06T08:50:49.254Z,5.93
2023-03-06T08:51:52.752Z,5.80
2023-03-06T08:52:55.619Z,5.40
2023-03-06T08:53:58.677Z,5.10
2023-03-06T08:55:03.967Z,5.50
2023-03-06T08:56:07.457Z,5.65
2023-03-06T08:57:10.272Z,6.35
2023-03-06T08:58:13.445Z,6.28
2023-03-06T08:59:16.297Z,6.10
2023-03-06T09:00:22.564Z,5.65
2023-03-06T09:01:31.595Z,5.57
2023-03-06T09:02:34.784Z,6.47
2023-03-06T09:03:37.657Z,5.53
2023-03-06T09:04:40.598Z,5.88
2023-03-06T09:05:43.686Z,6.05
2023-03-06T09:06:46.989Z,5.75
2023-03-06T09:07:50.101Z,6.25
2023-03-06T09:08:54.443Z,6.50
2023-03-06T09:09:58.196Z,6.63
2023-03-06T09:11:04.560Z,6.05
2023-03-06T09:12:07.650Z,6.10
2023-03-06T09:13:10.528Z,6.18
2023-03-06T09:14:13.774Z,6.50
2023-03-06T09:15:16.948Z,6.22
2023-03-06T09:16:20.587Z,6.55
2023-03-06T09:17:23.748Z,6.38
2023-03-06T09:18:29.692Z,6.20
2023-03-06T09:19:33.033Z,6.43
2023-03-06T09:20:38.058Z,7.40
2023-03-06T09:21:51.840Z,5.82
2023-03-06T09:22:57.845Z,6.25
2023-03-06T09:24:01.139Z,6.45
2023-03-06T09:25:11.899Z,7.22
2023-03-06T09:26:15.836Z,5.70
2023-03-06T09:27:19.115Z,6.35
2023-03-06T09:28:26.155Z,6.82
2023-03-06T09:29:30.587Z,6.03
2023-03-06T09:30:33.697Z,6.15
2023-03-06T09:31:36.717Z,6.25
2023-03-06T09:32:41.689Z,6.70
2023-03-06T09:33:45.807Z,5.90
2023-03-06T09:34:49.162Z,6.15
2023-03-06T09:35:57.025Z,6.78
2023-03-06T09:37:03.057Z,6.68
2023-03-06T09:38:06.033Z,6.28
2023-03-06T09:39:09.558Z,5.80
2023-03-06T09:40:25.213Z,6.35
2023-03-06T09:41:31.418Z,6.80
2023-03-06T09:42:36.094Z,6.30
2023-03-06T09:44:14.815Z,5.70
2023-03-06T09:45:21.459Z,5.88
2023-03-06T09:47:03.755Z,6.03
2023-03-06T09:48:15.051Z,5.70
2023-03-06T09:49:25.673Z,5.95
2023-03-06T09:50:43.945Z,5.93
2023-03-06T09:51:55.548Z,6.18
2023-03-06T09:53:31.179Z,5.50
2023-03-06T09:55:09.730Z,5.82
2023-03-06T09:56:25.486Z,5.88
2023-03-06T09:57:33.561Z,5.35
2023-03-06T09:58:47.432Z,5.95
2023-03-06T09:59:54.737Z,6.15
2023-03-06T10:01:09.605Z,5.80
2023-03-06T10:02:20.827Z,6.03
2023-03-06T10:03:29.956Z,5.95
2023-03-06T10:04:46.427Z,5.68
2023-03-06T10:06:23.500Z,6.13
2023-03-06T10:07:43.808Z,5.82
2023-03-06T10:09:02.850Z,6.18
2023-03-06T10:10:07.778Z,5.90
2023-03-06T10:11:13.696Z,5.90
2023-03-06T10:12:29.001Z,6.25
2023-03-06T10:13:46.153Z,5.25
2023-03-06T10:15:18.364Z,5.88
2023-03-06T10:16:27.159Z,5.95
2023-03-06T10:17:40.011Z,5.80
2023-03-06T10:18:43.620Z,5.95
2023-03-06T10:19:50.197Z,5.53
2023-03-06T10:21:17.002Z,4.68
2023-03-06T10:22:52.602Z,5.63
2023-03-06T10:24:23.773Z,5.25
2023-03-06T10:25:31.484Z,4.75
2023-03-06T10:26:47.023Z,5.70
2023-03-06T10:28:01.851Z,5.97
2023-03-06T10:29:13.691Z,5.18
2023-03-06T10:30:28.665Z,5.35
2023-03-06T10:31:36.866Z,4.82
2023-03-06T10:32:55.432Z,5.60
2023-03-06T10:34:23.595Z,5.35
2023-03-06T10:35:33.351Z,5.10
2023-03-06T10:36:36.466Z,4.72
2023-03-06T10:37:39.721Z,5.30
2023-03-06T10:38:44.522Z,5.13
2023-03-06T10:39:52.830Z,5.00
2023-03-06T10:41:04.525Z,4.78
2023-03-06T10:42:09.494Z,5.38
2023-03-06T10:43:13.700Z,4.93
2023-03-06T10:44:17.758Z,4.70
2023-03-06T10:45:20.904Z,4.78
2023-03-06T10:46:35.616Z,4.65
2023-03-06T10:47:46.794Z,4.55
2023-03-06T10:49:31.383Z,5.57
2023-03-06T10:50:38.281Z,5.68
2023-03-06T10:51:59.950Z,4.75
2023-03-06T10:53:15.705Z,5.13
2023-03-06T10:54:20.014Z,4.63
2023-03-06T10:55:25.196Z,4.65
2023-03-06T10:56:39.703Z,4.82
2023-03-06T10:57:44.079Z,4.47
2023-03-06T10:58:47.130Z,4.25
2023-03-06T10:59:59.494Z,4.38
2023-03-06T11:01:21.883Z,4.10
2023-03-06T11:02:32.437Z,4.40
2023-03-06T11:03:37.034Z,4.32
2023-03-06T11:04:44.690Z,4.32
2023-03-06T11:06:05.008Z,4.45
2023-03-06T11:07:10.819Z,3.83
2023-03-06T11:08:22.797Z,4.47
2023-03-06T11:09:26.594Z,3.90
2023-03-06T11:10:32.302Z,4.47
2023-03-06T11:11:37.971Z,3.83
2023-03-06T11:12:42.918Z,3.92
2023-03-06T11:13:58.057Z,4.65
2023-03-06T11:15:22.427Z,3.97
2023-03-06T11:16:32.856Z,4.10
2023-03-06T11:18:04.847Z,3.72
2023-03-06T11:19:29.147Z,4.20
2023-03-06T11:20:54.106Z,4.40
2023-03-06T11:22:17.939Z,3.72
2023-03-06T11:23:46.782Z,3.83
2023-03-06T11:24:52.353Z,4.10
2023-03-06T11:26:16.154Z,4.35
2023-03-06T11:27:25.825Z,4.20
2023-03-06T11:28:49.135Z,3.63
2023-03-06T11:29:55.409Z,4.03
2023-03-06T11:31:10.825Z,3.97
2023-03-06T11:32:22.730Z,4.30
2023-03-06T11:33:55.131Z,4.07
2023-03-06T11:34:59.748Z,3.70
2023-03-06T11:36:36.251Z,3.92
2023-03-06T11:37:48.490Z,4.15
2023-03-06T11:38:54.100Z,3.83
2023-03-06T11:40:15.626Z,4.20
2023-03-06T11:41:27.539Z,3.55
2023-03-06T11:42:37.660Z,3.58
2023-03-06T11:44:14.605Z,4.13
2023-03-06T11:45:37.652Z,4.88
2023-03-06T11:46:47.227Z,3.53
2023-03-06T11:47:58.082Z,4.13
2023-03-06T11:49:13.005Z,3.90
2023-03-06T11:50:25.709Z,3.95
2023-03-06T11:51:34.992Z,4.68
2023-03-06T11:52:44.714Z,3.45
2023-03-06T11:53:51.125Z,3.28
2023-03-06T11:54:57.916Z,3.30
2023-03-06T11:56:11.241Z,3.70
2023-03-06T11:58:43.490Z,3.15
2023-03-06T12:00:05.789Z,3.05
2023-03-06T12:01:28.191Z,3.55
2023-03-06T12:02:49.664Z,3.05
2023-03-06T12:04:11.037Z,3.22
2023-03-06T12:05:21.516Z,3.10
2023-03-06T12:06:51.381Z,2.88
2023-03-06T12:08:13.272Z,3.05
2023-03-06T12:09:16.310Z,2.88
2023-03-06T12:10:51.884Z,3.25
2023-03-06T12:12:07.111Z,3.05
2023-03-06T12:13:56.330Z,3.05
2023-03-06T12:15:38.140Z,2.78
2023-03-06T12:16:56.070Z,2.53
2023-03-06T12:18:26.311Z,2.50
2023-03-06T12:19:52.397Z,2.70
2023-03-06T12:20:55.231Z,2.83
2023-03-06T12:22:16.517Z,2.83
2023-03-06T12:23:55.975Z,2.85
2023-03-06T12:25:23.266Z,2.35
2023-03-06T12:26:50.796Z,2.63
2023-03-06T12:27:54.138Z,2.28
2023-03-06T12:29:02.843Z,3.60
2023-03-06T12:30:39.438Z,2.00
2023-03-06T12:31:47.655Z,2.38
2023-03-06T12:33:06.101Z,2.15
2023-03-06T12:34:24.094Z,3.05
2023-03-06T12:35:54.144Z,2.22
2023-03-06T12:37:01.851Z,2.55
2023-03-06T12:38:32.563Z,2.25
2023-03-06T12:39:36.038Z,2.13
2023-03-06T12:40:59.617Z,2.13
2023-03-06T12:42:23.752Z,1.83
2023-03-06T12:43:44.685Z,2.20
2023-03-06T12:44:56.447Z,2.42
2023-03-06T12:46:05.262Z,2.17
2023-03-06T12:47:14.069Z,1.85
2023-03-06T12:48:23.253Z,1.75
2023-03-06T12:49:33.346Z,1.63
2023-03-06T12:50:40.220Z,1.90
2023-03-06T12:51:44.853Z,1.60
2023-03-06T12:52:49.168Z,1.73
2023-03-06T12:53:52.648Z,1.80
2023-03-06T12:54:56.916Z,1.50
2023-03-06T12:56:02.011Z,1.83
2023-03-06T12:57:08.597Z,1.70
2023-03-06T12:58:29.840Z,1.40
2023-03-06T12:59:49.814Z,1.50
2023-03-06T13:01:05.125Z,1.92
2023-03-06T13:02:45.066Z,1.45
2023-03-06T13:04:28.419Z,1.25
2023-03-06T13:06:16.381Z,1.65
2023-03-06T13:07:52.905Z,1.50
2023-03-06T13:09:03.283Z,1.42
2023-03-06T13:10:28.300Z,1.20
2023-03-06T13:12:51.186Z,1.20
2023-03-06T13:13:55.107Z,1.40
2023-03-06T13:15:01.163Z,1.08
2023-03-06T13:16:04.353Z,1.40
2023-03-06T13:17:37.535Z,1.08
2023-03-06T13:18:43.063Z,1.27
2023-03-06T13:19:45.902Z,1.08
2023-03-06T13:20:54.090Z,0.93
2023-03-06T13:21:56.948Z,1.30
2023-03-06T13:23:20.047Z,1.30
2023-03-06T13:24:27.294Z,0.90
2023-03-06T13:26:32.734Z,1.25
2023-03-06T13:28:01.533Z,0.90
2023-03-06T13:29:36.144Z,1.13
2023-03-06T13:30:39.150Z,0.95
2023-03-06T13:31:42.087Z,0.90
2023-03-06T13:32:45.049Z,1.20
2023-03-06T13:33:58.486Z,0.85
2023-03-06T13:35:01.890Z,0.95
2023-03-06T13:36:21.326Z,1.00
2023-03-06T13:37:24.351Z,1.05
2023-03-06T13:38:34.514Z,1.13
2023-03-06T13:39:55.304Z,0.93
2023-03-06T13:41:37.859Z,0.80
2023-03-06T13:42:43.327Z,1.52
2023-03-06T13:43:46.573Z,0.93
2023-03-06T13:44:51.299Z,1.05
2023-03-06T13:45:54.230Z,1.10
2023-03-06T13:47:19.889Z,0.80
2023-03-06T13:48:43.669Z,1.20
2023-03-06T13:49:49.181Z,1.00
2023-03-06T13:50:52.898Z,0.93
2023-03-06T13:51:55.695Z,0.90
2023-03-06T13:53:19.377Z,0.70
2023-03-06T13:54:55.496Z,0.93
2023-03-06T13:56:35.311Z,1.10
2023-03-06T13:58:13.537Z,0.85
2023-03-06T13:59:16.296Z,1.05
2023-03-06T14:00:40.285Z,0.80
2023-03-06T14:01:43.444Z,0.80
2023-03-06T14:03:23.216Z,0.82
2023-03-06T14:04:58.075Z,0.93
2023-03-06T14:06:01.182Z,0.90
2023-03-06T14:07:22.073Z,1.10
2023-03-06T14:08:27.581Z,0.98
2023-03-06T14:09:36.043Z,0.80
2023-03-06T14:10:39.229Z,0.93
2023-03-06T14:11:53.019Z,1.00
2023-03-06T14:13:03.220Z,0.88
2023-03-06T14:14:06.214Z,1.05
2023-03-06T14:15:24.283Z,1.38
2023-03-06T14:16:37.589Z,0.93
2023-03-06T14:18:05.073Z,1.13
2023-03-06T14:19:17.631Z,0.85
2023-03-06T14:20:22.036Z,0.90
2023-03-06T14:21:42.022Z,0.93
2023-03-06T14:22:44.982Z,1.00
2023-03-06T14:24:00.314Z,0.80
2023-03-06T14:25:14.131Z,0.63
2023-03-06T14:26:24.298Z,0.82
2023-03-06T14:27:49.132Z,1.60
2023-03-06T14:28:59.756Z,0.77
2023-03-06T14:30:06.953Z,1.00
2023-03-06T14:31:18.315Z,0.95
2023-03-06T14:32:23.361Z,1.00
2023-03-06T14:33:52.660Z,0.73
2023-03-06T14:34:55.559Z,1.10
2023-03-06T14:36:02.061Z,1.00
2023-03-06T14:37:07.908Z,0.70
2023-03-06T14:38:14.789Z,0.93
2023-03-06T14:39:35.198Z,0.95
2023-03-06T14:40:45.385Z,1.25
2023-03-06T14:41:48.460Z,0.70
2023-03-06T14:43:27.352Z,1.25
2023-03-06T14:44:33.295Z,1.00
2023-03-06T14:45:36.371Z,1.00
2023-03-06T14:46:39.302Z,1.23
2023-03-06T14:47:42.458Z,1.27
2023-03-06T14:48:47.115Z,0.98
2023-03-06T14:50:23.614Z,1.75
2023-03-06T14:51:26.615Z,1.63
2023-03-06T14:52:29.538Z,1.67
2023-03-06T14:53:34.848Z,1.50
2023-03-06T14:54:37.868Z,1.60
2023-03-06T14:55:53.447Z,1.60
2023-03-06T14:57:22.496Z,1.55
2023-03-06T14:58:42.744Z,1.40
2023-03-06T14:59:54.536Z,1.30
2023-03-06T15:01:01.806Z,1.65
2023-03-06T15:02:08.077Z,1.55
2023-03-06T15:03:20.625Z,1.55
2023-03-06T15:04:38.573Z,1.52
2023-03-06T15:05:45.324Z,1.52
2023-03-06T15:06:49.062Z,1.52
2023-03-06T15:07:54.746Z,1.70
2023-03-06T15:09:09.508Z,1.50
2023-03-06T15:10:26.143Z,1.90